Time;durP1;ratioP1;P1;durP2;ratioP2;P2;SDS_P1;SDS_P2;PMS_P1;PMS_P2;Temp;Humidity;BMP_temperature;BMP_pressure;BME280_temperature;BME280_humidity;BME280_pressure;Samples;Min_cycle;Max_cycle;Signal;HPM_P1;HPM_P2
2022/12/04 00:09:04;;;;;;;57.40;30.60;;;;;;;-0.33;100.00;100233.42;435951;1281;144903;-65
2022/12/04 00:19:10;;;;;;;41.90;25.90;;;;;;;-0.34;100.00;100232.58;436646;1280;142731;-65
2022/12/04 00:29:15;;;;;;;41.40;24.90;;;;;;;-0.36;100.00;100251.17;436493;1282;142743;-65
2022/12/04 00:39:21;;;;;;;41.60;22.80;;;;;;;-0.39;100.00;100256.36;435892;1274;144068;-65
2022/12/04 00:49:27;;;;;;;45.20;24.80;;;;;;;-0.41;100.00;100254.14;436639;1281;144023;-65
2022/12/04 00:59:32;;;;;;;38.00;22.70;;;;;;;-0.42;100.00;100246.57;433489;1282;142359;-65
2022/12/04 01:09:38;;;;;;;42.60;26.00;;;;;;;-0.44;100.00;100239.70;427592;1275;147427;-66
2022/12/04 01:19:44;;;;;;;43.40;23.70;;;;;;;-0.46;100.00;100223.73;436730;1274;143223;-66
2022/12/04 01:29:49;;;;;;;40.40;24.10;;;;;;;-0.48;100.00;100202.75;436062;1281;164426;-64
2022/12/04 01:39:55;;;;;;;38.80;21.30;;;;;;;-0.49;100.00;100205.17;433851;1281;143484;-65
2022/12/04 01:50:01;;;;;;;38.00;22.60;;;;;;;-0.50;100.00;100184.20;436864;1278;142335;-64
2022/12/04 02:00:12;;;;;;;34.40;21.10;;;;;;;-0.48;100.00;100180.56;436079;1281;143952;-65
2022/12/04 02:10:23;;;;;;;32.50;19.60;;;;;;;-0.45;100.00;100184.84;436884;1281;143628;-65
2022/12/04 02:20:36;;;;;;;30.20;20.40;;;;;;;-0.43;100.00;100190.14;436782;1274;143758;-65
2022/12/04 02:30:44;;;;;;;39.80;21.40;;;;;;;-0.44;100.00;100207.02;436116;1275;143738;-65
2022/12/04 02:40:56;;;;;;;36.40;19.80;;;;;;;-0.43;100.00;100222.50;429804;1282;142474;-65
2022/12/04 02:51:05;;;;;;;33.70;18.20;;;;;;;-0.43;100.00;100197.73;436105;1274;143970;-65
2022/12/04 03:01:22;;;;;;;35.50;22.10;;;;;;;-0.42;100.00;100200.98;436884;1282;142220;-65
2022/12/04 03:11:31;;;;;;;37.90;22.50;;;;;;;-0.41;100.00;100191.70;435684;1280;142112;-65
2022/12/04 03:21:39;;;;;;;42.40;23.70;;;;;;;-0.40;100.00;100186.69;436125;1280;143317;-64
2022/12/04 03:31:49;;;;;;;40.00;22.90;;;;;;;-0.39;100.00;100201.83;436177;1288;143407;-64
2022/12/04 03:42:01;;;;;;;36.30;21.00;;;;;;;-0.39;100.00;100203.38;436112;1281;143210;-65
2022/12/04 03:52:14;;;;;;;38.00;21.80;;;;;;;-0.39;100.00;100201.65;436865;1281;143538;-65
2022/12/04 04:02:24;;;;;;;34.50;20.50;;;;;;;-0.38;100.00;100203.53;436903;1281;146349;-65
2022/12/04 04:12:34;;;;;;;35.10;19.20;;;;;;;-0.39;100.00;100202.17;423622;1274;142110;-65
2022/12/04 04:33:11;;;;;;;35.80;20.50;;;;;;;-0.43;100.00;100212.17;436087;1282;143971;-65
2022/12/04 04:43:22;;;;;;;33.60;21.40;;;;;;;-0.44;100.00;100197.05;436787;1281;143264;-65
2022/12/04 04:53:35;;;;;;;32.80;20.60;;;;;;;-0.46;100.00;100194.48;434955;1281;143291;-65
2022/12/04 05:03:41;;;;;;;35.50;22.00;;;;;;;-0.50;100.00;100201.23;436169;1280;142471;-65
2022/12/04 05:13:47;;;;;;;36.80;22.30;;;;;;;-0.53;100.00;100206.94;436985;1272;153077;-65
2022/12/04 05:23:53;;;;;;;33.80;18.70;;;;;;;-0.52;100.00;100205.20;436283;1274;144273;-65
2022/12/04 05:33:59;;;;;;;36.40;23.00;;;;;;;-0.51;100.00;100194.19;435718;1275;144439;-64
2022/12/04 05:44:05;;;;;;;33.50;22.50;;;;;;;-0.54;100.00;100186.46;434263;1279;142616;-64
2022/12/04 05:54:10;;;;;;;34.00;19.90;;;;;;;-0.57;100.00;100173.94;436228;1274;187324;-64
2022/12/04 06:04:16;;;;;;;33.80;18.80;;;;;;;-0.60;100.00;100190.48;436978;1285;142425;-64
2022/12/04 06:14:22;;;;;;;33.10;21.70;;;;;;;-0.61;100.00;100197.36;436984;1281;142256;-64
2022/12/04 06:24:27;;;;;;;32.80;18.40;;;;;;;-0.62;100.00;100217.33;433828;1274;143902;-64
2022/12/04 06:34:34;;;;;;;31.90;19.40;;;;;;;-0.65;100.00;100199.96;421698;1279;143327;-66
2022/12/04 06:44:40;;;;;;;33.30;19.30;;;;;;;-0.69;100.00;100201.73;426833;1279;142014;-66
2022/12/04 06:54:46;;;;;;;36.60;20.60;;;;;;;-0.69;100.00;100216.85;435071;1282;197901;-64
2022/12/04 07:04:56;;;;;;;29.90;19.10;;;;;;;-0.67;100.00;100220.63;436971;1288;144337;-64
2022/12/04 07:15:01;;;;;;;36.20;18.80;;;;;;;-0.63;100.00;100217.34;436239;1281;143662;-64
2022/12/04 07:25:07;;;;;;;33.10;17.20;;;;;;;-0.58;100.00;100210.58;436993;1279;143045;-64
2022/12/04 07:35:13;;;;;;;33.10;20.00;;;;;;;-0.54;100.00;100212.95;433266;1274;142731;-64
2022/12/04 07:45:19;;;;;;;35.20;20.60;;;;;;;-0.50;100.00;100217.56;425494;1279;142510;-64
2022/12/04 07:55:25;;;;;;;32.10;19.50;;;;;;;-0.52;100.00;100219.64;436929;1279;143023;-65
2022/12/04 08:05:31;;;;;;;32.50;19.30;;;;;;;-0.47;100.00;100233.73;434994;1280;143257;-66
2022/12/04 08:15:37;;;;;;;34.80;19.80;;;;;;;-0.40;100.00;100232.11;425558;1278;143739;-66
2022/12/04 08:25:43;;;;;;;36.70;23.40;;;;;;;-0.35;100.00;100235.34;423801;1273;142232;-65
2022/12/04 08:35:48;;;;;;;32.70;21.30;;;;;;;-0.37;100.00;100240.69;423029;1281;154527;-65
2022/12/04 08:45:59;;;;;;;37.10;21.20;;;;;;;-0.32;100.00;100241.84;424072;1279;141949;-66
2022/12/04 08:56:05;;;;;;;37.10;21.50;;;;;;;-0.26;100.00;100247.81;430369;1278;142873;-65
2022/12/04 09:06:13;;;;;;;38.10;19.40;;;;;;;-0.17;100.00;100253.94;429227;1280;143292;-66
2022/12/04 09:16:21;;;;;;;34.40;21.00;;;;;;;-0.09;100.00;100251.45;429102;1279;142356;-65
2022/12/04 09:26:29;;;;;;;36.40;21.40;;;;;;;-0.06;100.00;100239.71;423327;1278;142930;-66
2022/12/04 09:36:34;;;;;;;35.00;22.10;;;;;;;0.05;100.00;100246.48;425717;1278;142291;-65
2022/12/04 09:46:46;;;;;;;37.30;22.90;;;;;;;0.10;100.00;100236.64;424804;1278;142198;-67
2022/12/04 09:57:01;;;;;;;33.50;23.10;;;;;;;0.10;100.00;100224.57;433038;1279;143382;-67
2022/12/04 10:07:15;;;;;;;37.70;23.20;;;;;;;0.15;100.00;100215.91;436892;1287;141894;-66
2022/12/04 10:17:43;;;;;;;33.30;22.50;;;;;;;0.18;100.00;100199.87;436957;1287;142844;-65
2022/12/04 10:27:55;;;;;;;32.90;22.00;;;;;;;0.22;100.00;100195.68;430749;1274;142523;-65
2022/12/04 10:38:11;;;;;;;38.70;23.00;;;;;;;0.22;100.00;100199.46;428851;1279;143566;-66
2022/12/04 10:48:26;;;;;;;39.30;24.10;;;;;;;0.21;100.00;100190.53;434514;1279;143836;-68
2022/12/04 10:58:31;;;;;;;31.70;19.70;;;;;;;0.24;100.00;100197.73;436751;1282;145058;-67
2022/12/04 11:08:40;;;;;;;31.20;20.40;;;;;;;0.19;100.00;100201.05;436800;1277;142604;-66
2022/12/04 11:18:50;;;;;;;32.70;19.00;;;;;;;0.23;100.00;100200.50;429582;1282;199073;-66
2022/12/04 11:29:00;;;;;;;30.80;20.10;;;;;;;0.23;100.00;100198.95;433605;1278;143239;-66
2022/12/04 11:39:14;;;;;;;33.30;20.90;;;;;;;0.15;100.00;100191.63;435965;1287;143713;-66
2022/12/04 11:49:23;;;;;;;30.10;20.50;;;;;;;0.09;100.00;100195.32;436697;1288;141787;-66
2022/12/04 11:59:44;;;;;;;29.90;19.50;;;;;;;0.14;100.00;100186.48;435602;1281;143154;-67
2022/12/04 12:09:59;;;;;;;36.90;21.20;;;;;;;0.21;100.00;100186.39;436292;1277;143566;-66
2022/12/04 12:20:17;;;;;;;36.80;24.10;;;;;;;0.19;100.00;100195.89;429427;1280;142819;-64
2022/12/04 12:30:24;;;;;;;32.80;21.60;;;;;;;0.22;100.00;100189.83;429582;1278;143679;-65
2022/12/04 12:40:37;;;;;;;37.20;23.50;;;;;;;0.16;100.00;100188.86;432377;1278;143678;-66
2022/12/04 12:50:49;;;;;;;38.40;23.20;;;;;;;0.15;100.00;100181.81;434998;1278;142033;-66
2022/12/04 13:01:19;;;;;;;35.10;22.90;;;;;;;0.15;100.00;100183.73;427160;1279;339434;-66
2022/12/04 13:11:28;;;;;;;42.40;26.20;;;;;;;0.15;100.00;100175.63;420513;1281;142778;-66
2022/12/04 13:21:40;;;;;;;36.70;22.40;;;;;;;0.09;100.00;100172.42;430306;1285;146633;-67
2022/12/04 13:31:59;;;;;;;38.10;23.90;;;;;;;0.07;100.00;100159.02;420425;1279;142796;-67
2022/12/04 13:42:20;;;;;;;32.70;21.20;;;;;;;0.07;100.00;100157.13;434998;1286;143406;-67
2022/12/04 13:52:39;;;;;;;37.50;22.20;;;;;;;0.03;100.00;100157.67;436780;1279;143829;-66
2022/12/04 14:02:52;;;;;;;35.40;22.50;;;;;;;0.00;100.00;100167.35;436635;1286;142321;-67
2022/12/04 14:13:03;;;;;;;32.70;21.10;;;;;;;-0.05;100.00;100175.85;436596;1278;206941;-66
2022/12/04 14:23:25;;;;;;;30.30;20.20;;;;;;;-0.10;100.00;100176.25;436697;1281;143094;-67
2022/12/04 14:33:32;;;;;;;30.40;20.50;;;;;;;-0.17;100.00;100170.81;435984;1274;143460;-67
2022/12/04 14:43:44;;;;;;;35.20;22.70;;;;;;;-0.18;100.00;100172.88;432315;1278;144689;-69
2022/12/04 14:53:59;;;;;;;33.60;22.60;;;;;;;-0.22;100.00;100189.95;427705;1285;144725;-68
2022/12/04 15:04:18;;;;;;;31.60;19.50;;;;;;;-0.30;100.00;100187.11;436766;1282;143804;-67
2022/12/04 15:14:24;;;;;;;38.80;25.70;;;;;;;-0.36;100.00;100181.84;436592;1287;142359;-67
2022/12/04 15:24:30;;;;;;;33.70;23.00;;;;;;;-0.39;100.00;100172.92;433036;1281;143067;-66
2022/12/04 15:34:41;;;;;;;36.20;23.70;;;;;;;-0.41;100.00;100184.64;436634;1282;143515;-67
2022/12/04 15:44:59;;;;;;;38.20;22.10;;;;;;;-0.42;100.00;100176.39;435894;1271;143899;-66
2022/12/04 15:55:08;;;;;;;36.30;22.70;;;;;;;-0.44;100.00;100185.00;436666;1281;144912;-67
2022/12/04 16:05:26;;;;;;;40.60;26.50;;;;;;;-0.46;100.00;100181.75;424185;1280;143033;-66
2022/12/04 16:15:39;;;;;;;38.00;24.80;;;;;;;-0.51;100.00;100166.50;436017;1275;142934;-66
2022/12/04 16:25:45;;;;;;;34.30;22.70;;;;;;;-0.53;100.00;100162.89;424795;1278;142929;-66
2022/12/04 16:35:58;;;;;;;41.20;27.60;;;;;;;-0.53;100.00;100182.16;423431;1272;142639;-67
2022/12/04 16:46:03;;;;;;;35.60;23.70;;;;;;;-0.55;100.00;100178.92;433827;1281;143410;-67
2022/12/04 16:56:09;;;;;;;31.20;22.90;;;;;;;-0.57;100.00;100163.45;436762;1278;142845;-67
2022/12/04 17:06:16;;;;;;;32.60;22.30;;;;;;;-0.60;100.00;100174.81;430083;1272;143545;-67
2022/12/04 17:16:23;;;;;;;32.40;21.50;;;;;;;-0.60;100.00;100162.77;436695;1281;142702;-67
2022/12/04 17:26:29;;;;;;;31.50;23.00;;;;;;;-0.57;100.00;100154.67;436632;1287;143293;-67
2022/12/04 17:36:35;;;;;;;31.60;22.80;;;;;;;-0.57;100.00;100165.17;435978;1274;143368;-66
2022/12/04 17:46:40;;;;;;;29.60;21.70;;;;;;;-0.58;100.00;100178.41;436790;1285;144352;-67
2022/12/04 17:56:46;;;;;;;27.80;20.10;;;;;;;-0.58;100.00;100189.94;426965;1279;142279;-68
2022/12/04 18:06:57;;;;;;;33.50;22.80;;;;;;;-0.61;100.00;100179.31;436701;1272;144386;-67
2022/12/04 18:17:03;;;;;;;34.30;21.80;;;;;;;-0.60;100.00;100174.48;436773;1274;143241;-65
2022/12/04 18:27:10;;;;;;;29.70;21.80;;;;;;;-0.58;100.00;100168.27;435923;1274;142979;-67
2022/12/04 18:37:15;;;;;;;35.00;21.30;;;;;;;-0.60;100.00;100151.77;436709;1281;143317;-66
2022/12/04 18:47:21;;;;;;;36.10;24.00;;;;;;;-0.62;100.00;100152.48;436719;1275;142700;-66
2022/12/04 18:57:27;;;;;;;33.00;21.70;;;;;;;-0.61;100.00;100160.90;435906;1281;143574;-67
2022/12/04 19:07:32;;;;;;;35.00;22.00;;;;;;;-0.62;100.00;100165.73;436606;1274;143564;-67
2022/12/04 19:17:38;;;;;;;33.70;23.70;;;;;;;-0.63;100.00;100167.96;436742;1282;143000;-66
2022/12/04 19:27:44;;;;;;;38.50;25.00;;;;;;;-0.62;100.00;100182.75;436032;1271;144532;-66
2022/12/04 19:37:52;;;;;;;35.60;22.30;;;;;;;-0.61;100.00;100182.74;434402;1282;144209;-65
2022/12/04 19:47:58;;;;;;;39.40;25.80;;;;;;;-0.63;100.00;100192.56;436092;1284;143666;-66
2022/12/04 19:58:04;;;;;;;33.00;23.30;;;;;;;-0.63;100.00;100193.09;433143;1281;142259;-66
2022/12/04 20:08:09;;;;;;;37.50;25.10;;;;;;;-0.64;100.00;100193.94;436695;1281;142846;-66
2022/12/04 20:18:14;;;;;;;38.20;26.20;;;;;;;-0.65;100.00;100200.66;426568;1288;143722;-66
2022/12/04 20:28:20;;;;;;;41.50;27.40;;;;;;;-0.65;100.00;100204.79;432663;1286;143313;-66
2022/12/04 20:38:25;;;;;;;38.90;24.90;;;;;;;-0.67;100.00;100198.96;436759;1278;143050;-66
2022/12/04 20:48:31;;;;;;;39.40;24.40;;;;;;;-0.67;100.00;100190.02;435964;1281;143637;-67
2022/12/04 20:58:37;;;;;;;37.70;23.40;;;;;;;-0.68;100.00;100181.42;436708;1281;143676;-66
2022/12/04 21:08:55;;;;;;;33.70;22.80;;;;;;;-0.70;100.00;100176.27;434634;1278;142837;-65
2022/12/04 21:19:02;;;;;;;36.70;24.30;;;;;;;-0.75;100.00;100178.73;431265;1287;196642;-67
2022/12/04 21:29:08;;;;;;;34.00;21.90;;;;;;;-0.79;100.00;100175.33;436749;1281;141635;-67
2022/12/04 21:39:14;;;;;;;35.20;24.70;;;;;;;-0.78;100.00;100169.46;436064;1281;143215;-67
2022/12/04 21:49:21;;;;;;;31.50;22.70;;;;;;;-0.81;100.00;100161.76;423712;1278;141756;-68
2022/12/04 21:59:27;;;;;;;30.70;22.30;;;;;;;-0.85;100.00;100165.73;424389;1272;144569;-68
2022/12/04 22:09:33;;;;;;;30.70;21.30;;;;;;;-0.91;100.00;100168.04;436001;1279;141820;-68
2022/12/04 22:19:39;;;;;;;28.70;21.10;;;;;;;-0.95;100.00;100169.44;435086;1282;143364;-68
2022/12/04 22:29:45;;;;;;;30.90;19.60;;;;;;;-0.98;100.00;100174.95;427466;1282;141663;-69
2022/12/04 22:39:56;;;;;;;31.40;21.50;;;;;;;-1.01;100.00;100157.27;436421;1281;145697;-69
2022/12/04 22:50:02;;;;;;;34.40;22.40;;;;;;;-1.03;100.00;100143.19;436703;1280;142362;-69
2022/12/04 23:00:11;;;;;;;31.10;22.30;;;;;;;-1.06;100.00;100135.48;436082;1280;142504;-67
2022/12/04 23:10:17;;;;;;;29.60;22.10;;;;;;;-1.08;100.00;100131.89;436705;1280;145024;-67
2022/12/04 23:20:23;;;;;;;32.80;21.90;;;;;;;-1.09;100.00;100138.25;430526;1282;143160;-69
2022/12/04 23:30:29;;;;;;;34.90;21.90;;;;;;;-1.09;100.00;100143.06;424183;1279;142440;-67
2022/12/04 23:40:39;;;;;;;30.70;21.50;;;;;;;-1.12;100.00;100132.61;428798;1279;144499;-67
2022/12/04 23:50:45;;;;;;;30.30;20.90;;;;;;;-1.16;100.00;100131.27;431415;1287;142640;-67
